Time;durP1;ratioP1;P1;durP2;ratioP2;P2;SDS_P1;SDS_P2;PMS_P1;PMS_P2;Temp;Humidity;BMP_temperature;BMP_pressure;BME280_temperature;BME280_humidity;BME280_pressure;Samples;Min_cycle;Max_cycle;Signal;HPM_P1;HPM_P2
2022/11/23 00:03:00;;;;;;;11.70;3.42;;;;;;;8.10;60.69;98306.38;10309983;28;20053;-80
2022/11/23 00:08:02;;;;;;;10.45;4.20;;;;;;;8.19;60.70;98297.91;10330261;28;20062;-81
2022/11/23 00:13:04;;;;;;;10.27;3.28;;;;;;;8.16;60.89;98293.75;10312796;28;20496;-80
2022/11/23 00:18:06;;;;;;;8.25;3.20;;;;;;;8.16;60.91;98298.94;10311294;28;20053;-80
2022/11/23 00:23:08;;;;;;;10.15;3.15;;;;;;;8.21;60.72;98307.25;10313583;28;20420;-80
2022/11/23 00:28:11;;;;;;;13.30;3.78;;;;;;;8.21;60.48;98303.81;10313458;28;20057;-80
2022/11/23 00:33:13;;;;;;;9.25;2.67;;;;;;;8.18;60.71;98317.09;10301945;28;20050;-81
2022/11/23 00:38:56;;;;;;;11.40;2.45;;;;;;;8.09;60.79;98317.72;10298312;28;20046;-80
2022/11/23 00:43:58;;;;;;;10.65;3.70;;;;;;;8.07;60.91;98317.00;10299035;28;20124;-80
2022/11/23 00:49:00;;;;;;;13.35;3.20;;;;;;;8.10;61.10;98314.19;10299124;28;20440;-80
2022/11/23 00:54:04;;;;;;;16.40;3.42;;;;;;;8.09;61.01;98317.72;10299245;28;20145;-80
2022/11/23 00:59:05;;;;;;;9.18;2.40;;;;;;;7.98;61.55;98306.34;10296296;28;20073;-80
2022/11/23 01:04:07;;;;;;;7.32;2.80;;;;;;;8.01;61.13;98306.13;10314256;28;20054;-80
2022/11/23 01:09:17;;;;;;;10.15;2.30;;;;;;;7.95;61.57;98316.16;10297265;28;20042;-80
2022/11/23 01:14:20;;;;;;;10.82;2.97;;;;;;;7.93;61.66;98324.09;10296872;28;20057;-80
2022/11/23 01:19:22;;;;;;;11.10;2.33;;;;;;;8.00;61.60;98325.28;10310657;28;20054;-81
2022/11/23 01:24:24;;;;;;;13.75;2.40;;;;;;;8.04;61.54;98328.47;10298823;28;20065;-80
2022/11/23 01:29:25;;;;;;;14.43;2.72;;;;;;;7.91;61.81;98340.78;10288482;28;20046;-81
2022/11/23 01:34:27;;;;;;;9.75;2.40;;;;;;;7.97;61.80;98350.72;10297574;28;20081;-80
2022/11/23 01:39:29;;;;;;;11.43;3.00;;;;;;;7.95;61.82;98352.63;10294563;28;20566;-80
2022/11/23 01:44:37;;;;;;;8.68;2.55;;;;;;;7.96;61.85;98349.88;10303293;28;20085;-81
2022/11/23 01:49:45;;;;;;;10.82;2.75;;;;;;;7.93;62.12;98350.13;10300541;28;20062;-80
2022/11/23 01:54:50;;;;;;;14.73;2.60;;;;;;;7.95;61.75;98360.41;10259649;28;1151915;-81
2022/11/23 01:59:53;;;;;;;14.15;2.97;;;;;;;7.96;62.31;98360.31;10297307;28;20054;-80
2022/11/23 02:04:57;;;;;;;11.80;2.65;;;;;;;7.96;62.27;98355.09;10300116;28;20061;-80
2022/11/23 02:10:00;;;;;;;7.38;2.55;;;;;;;8.05;62.02;98358.78;10301582;28;20053;-80
2022/11/23 02:15:01;;;;;;;8.90;2.50;;;;;;;8.05;62.02;98358.78;10298606;28;20058;-81
2022/11/23 02:20:08;;;;;;;10.10;2.72;;;;;;;8.07;62.08;98366.47;10304777;28;20065;-80
2022/11/23 02:25:20;;;;;;;9.55;2.33;;;;;;;8.02;62.00;98361.59;10322398;28;20050;-80
2022/11/23 02:30:22;;;;;;;12.60;2.80;;;;;;;7.85;62.74;98356.84;10308336;28;20057;-80
2022/11/23 02:35:24;;;;;;;10.75;2.90;;;;;;;7.55;63.35;98361.69;10299691;28;20051;-80
2022/11/23 02:40:31;;;;;;;10.93;2.40;;;;;;;7.74;63.16;98370.63;10308917;28;20054;-80
2022/11/23 02:45:46;;;;;;;12.57;2.70;;;;;;;7.59;63.69;98356.13;10306820;28;20057;-80
2022/11/23 02:50:48;;;;;;;11.57;2.53;;;;;;;7.44;63.75;98357.25;10307862;28;20045;-80
2022/11/23 02:55:50;;;;;;;10.73;2.83;;;;;;;7.46;63.78;98357.13;10302397;28;20058;-80
2022/11/23 03:00:51;;;;;;;12.23;2.80;;;;;;;7.49;63.67;98360.31;10308100;28;20046;-80
2022/11/23 03:05:53;;;;;;;11.27;2.60;;;;;;;7.46;63.70;98357.97;10315618;28;20058;-81
2022/11/23 03:10:55;;;;;;;11.45;2.70;;;;;;;7.39;63.87;98361.09;10314305;28;20050;-80
2022/11/23 03:15:57;;;;;;;13.57;2.58;;;;;;;7.39;64.21;98374.09;10314251;28;20050;-80
2022/11/23 03:21:07;;;;;;;13.15;3.05;;;;;;;7.27;64.74;98372.38;10312016;28;20432;-80
2022/11/23 03:26:09;;;;;;;11.88;2.97;;;;;;;7.34;64.66;98371.00;10319153;28;20054;-80
2022/11/23 03:31:14;;;;;;;11.20;2.70;;;;;;;7.36;65.03;98374.31;10321688;28;20121;-81
2022/11/23 03:36:15;;;;;;;13.15;3.15;;;;;;;7.33;65.16;98375.38;10321522;28;20057;-80
2022/11/23 03:41:17;;;;;;;11.25;3.28;;;;;;;7.37;65.29;98373.38;10319299;28;20046;-80
2022/11/23 03:46:19;;;;;;;13.02;3.65;;;;;;;7.41;64.87;98377.41;10321925;28;20069;-81
2022/11/23 03:51:21;;;;;;;15.95;3.33;;;;;;;7.44;65.11;98378.06;10336567;28;20050;-80
2022/11/23 03:56:23;;;;;;;16.42;3.58;;;;;;;7.38;65.63;98375.06;10333485;28;20073;-80
2022/11/23 04:01:25;;;;;;;15.35;3.50;;;;;;;7.30;66.09;98370.41;10311939;28;20046;-80
2022/11/23 04:06:26;;;;;;;14.82;3.55;;;;;;;7.33;66.11;98383.16;10315241;28;20058;-81
2022/11/23 04:11:28;;;;;;;15.00;3.33;;;;;;;7.30;66.16;98372.16;10313295;28;20060;-80
2022/11/23 04:16:30;;;;;;;15.43;3.65;;;;;;;7.29;66.18;98373.09;10313157;28;20051;-80
2022/11/23 04:21:31;;;;;;;12.20;3.70;;;;;;;7.31;66.08;98368.59;10315499;28;20050;-80
2022/11/23 04:26:33;;;;;;;13.40;3.33;;;;;;;7.34;66.29;98371.84;10312915;28;20058;-80
2022/11/23 04:31:35;;;;;;;14.35;4.00;;;;;;;7.42;66.27;98369.53;10308863;28;20053;-80
2022/11/23 04:36:36;;;;;;;12.57;3.50;;;;;;;7.36;66.26;98369.97;10313270;28;20054;-80
2022/11/23 04:41:38;;;;;;;15.27;3.70;;;;;;;7.27;66.39;98369.75;10311945;28;20500;-80
2022/11/23 04:46:40;;;;;;;15.73;3.22;;;;;;;7.23;66.36;98379.56;10311623;28;20054;-80
2022/11/23 04:51:42;;;;;;;10.73;3.58;;;;;;;7.21;66.74;98378.84;10311995;28;20066;-80
2022/11/23 04:56:43;;;;;;;12.02;3.33;;;;;;;7.14;66.82;98377.63;10327971;28;20061;-80
2022/11/23 05:02:10;;;;;;;9.93;3.30;;;;;;;7.17;66.79;98380.84;10310839;28;20050;-80
2022/11/23 05:07:12;;;;;;;15.02;4.05;;;;;;;7.36;66.47;98385.56;10311859;28;20047;-80
2022/11/23 05:12:13;;;;;;;14.77;3.20;;;;;;;7.33;66.32;98387.53;10310285;28;20634;-80
2022/11/23 05:17:15;;;;;;;9.25;3.00;;;;;;;7.36;66.12;98382.97;10311518;28;20055;-80
2022/11/23 05:22:17;;;;;;;14.05;3.45;;;;;;;7.38;65.93;98383.69;10310106;28;20746;-80
2022/11/23 05:27:18;;;;;;;11.00;3.40;;;;;;;7.38;66.15;98390.66;10312720;28;20054;-80
2022/11/23 05:32:20;;;;;;;13.93;3.50;;;;;;;7.42;66.03;98382.53;10304370;28;20053;-80
2022/11/23 05:37:22;;;;;;;12.63;3.60;;;;;;;7.43;66.08;98385.94;10308732;28;20061;-80
2022/11/23 05:42:23;;;;;;;11.15;3.33;;;;;;;7.44;66.08;98382.41;10312721;28;20065;-80
2022/11/23 05:47:28;;;;;;;11.57;4.13;;;;;;;7.48;65.84;98382.09;10310795;28;20061;-80
2022/11/23 05:52:29;;;;;;;17.85;4.18;;;;;;;7.48;65.70;98389.91;10310217;28;20057;-80
2022/11/23 06:04:09;;;;;;;14.68;3.70;;;;;;;7.37;65.83;98394.19;10303568;28;20515;-80
2022/11/23 06:09:11;;;;;;;14.38;3.33;;;;;;;7.34;65.67;98400.44;10298098;28;20043;-80
2022/11/23 06:14:13;;;;;;;13.35;3.90;;;;;;;7.32;65.67;98398.88;10295861;28;20733;-80
2022/11/23 06:19:15;;;;;;;17.48;3.88;;;;;;;7.33;65.30;98406.56;10297129;28;20046;-80
2022/11/23 06:24:16;;;;;;;18.30;4.07;;;;;;;7.33;65.28;98400.53;10315205;28;20050;-80
2022/11/23 06:29:19;;;;;;;13.23;3.70;;;;;;;7.32;65.35;98401.50;10314859;28;20404;-81
2022/11/23 06:34:21;;;;;;;11.85;3.35;;;;;;;7.30;65.40;98395.56;10306273;28;20058;-79
2022/11/23 06:39:22;;;;;;;16.02;3.65;;;;;;;7.31;65.40;98405.84;10308023;28;20054;-79
2022/11/23 06:44:24;;;;;;;12.10;3.20;;;;;;;7.24;65.60;98407.25;10291977;28;20575;-80
2022/11/23 06:49:51;;;;;;;12.02;3.05;;;;;;;7.15;65.73;98411.31;10306533;28;20046;-79
2022/11/23 06:54:52;;;;;;;10.15;3.40;;;;;;;7.32;65.43;98419.69;10296902;28;20516;-79
2022/11/23 06:59:55;;;;;;;16.42;3.72;;;;;;;7.29;65.47;98425.94;10302430;28;20050;-80
2022/11/23 07:04:57;;;;;;;17.02;3.38;;;;;;;7.38;65.21;98420.09;10299216;28;20057;-79
2022/11/23 07:09:59;;;;;;;12.20;3.47;;;;;;;7.47;65.29;98429.03;10304623;28;20058;-79
2022/11/23 07:15:10;;;;;;;17.58;4.28;;;;;;;7.45;65.47;98433.50;10303157;28;20069;-79
2022/11/23 07:20:16;;;;;;;17.75;4.68;;;;;;;7.30;66.09;98437.19;10316893;28;20420;-79
2022/11/23 07:25:20;;;;;;;13.82;4.13;;;;;;;7.33;65.94;98439.53;10302951;28;20065;-79
2022/11/23 07:30:23;;;;;;;16.80;3.80;;;;;;;7.20;65.81;98437.81;10308805;28;20050;-79
2022/11/23 07:35:40;;;;;;;12.20;3.92;;;;;;;7.25;65.61;98450.50;10311953;28;20068;-79
2022/11/23 07:40:47;;;;;;;11.95;4.05;;;;;;;7.46;65.42;98454.19;10312498;28;20432;-80
2022/11/23 07:45:56;;;;;;;16.27;4.18;;;;;;;7.69;65.09;98455.97;10311589;28;20050;-80
2022/11/23 07:50:58;;;;;;;13.50;3.60;;;;;;;7.81;64.37;98464.72;10326079;28;20061;-80
2022/11/23 07:56:00;;;;;;;14.63;3.97;;;;;;;8.06;64.53;98464.59;10308394;28;20558;-80
2022/11/23 08:01:02;;;;;;;12.75;3.42;;;;;;;8.11;63.88;98472.94;10305397;28;20064;-81
2022/11/23 08:06:09;;;;;;;15.13;3.83;;;;;;;7.88;64.15;98469.34;10310858;28;20058;-81
2022/11/23 08:11:17;;;;;;;13.30;3.65;;;;;;;7.64;64.06;98473.72;10323340;28;20046;-81
2022/11/23 08:16:25;;;;;;;13.10;3.58;;;;;;;7.67;63.54;98468.28;10308230;28;20058;-82
2022/11/23 08:21:27;;;;;;;16.55;3.45;;;;;;;7.76;63.07;98465.03;10306399;28;20054;-81
2022/11/23 08:26:30;;;;;;;13.23;3.60;;;;;;;7.87;62.79;98466.88;10314836;28;20084;-81
2022/11/23 08:31:33;;;;;;;14.18;3.40;;;;;;;7.88;62.35;98473.72;10315202;28;20500;-82
2022/11/23 08:36:36;;;;;;;14.18;3.08;;;;;;;7.88;62.03;98477.16;10305632;28;20046;-82
2022/11/23 08:41:38;;;;;;;19.35;3.63;;;;;;;7.81;61.62;98480.31;10301537;28;20590;-82
2022/11/23 08:46:39;;;;;;;12.38;3.20;;;;;;;7.71;60.78;98484.53;10315533;28;20054;-82
2022/11/23 08:51:41;;;;;;;14.05;3.17;;;;;;;7.83;60.58;98475.84;10299680;28;21057;-81
2022/11/23 08:56:51;;;;;;;14.70;3.30;;;;;;;7.95;60.14;98486.22;10294314;28;20058;-82
2022/11/23 09:01:54;;;;;;;14.88;3.30;;;;;;;8.03;60.17;98476.06;10294635;28;20066;-82
2022/11/23 09:06:56;;;;;;;12.23;3.22;;;;;;;7.87;60.08;98475.53;10297818;28;20046;-82
2022/11/23 09:12:01;;;;;;;17.00;3.20;;;;;;;7.85;59.97;98474.75;10285348;28;20050;-82
2022/11/23 09:17:03;;;;;;;13.68;2.75;;;;;;;7.77;60.12;98484.91;10301186;28;20907;-82
2022/11/23 09:22:06;;;;;;;17.85;3.30;;;;;;;7.94;59.93;98491.50;10313064;28;20057;-81
2022/11/23 09:27:14;;;;;;;11.38;2.80;;;;;;;7.92;59.26;98483.81;10308992;28;20057;-82
2022/11/23 09:32:15;;;;;;;11.48;2.88;;;;;;;8.00;59.51;98485.84;10310986;28;20439;-81
2022/11/23 09:37:17;;;;;;;14.60;2.88;;;;;;;8.06;59.58;98495.81;10305744;28;20054;-84
2022/11/23 09:42:47;;;;;;;11.82;2.50;;;;;;;8.03;58.51;98485.66;10305003;28;20056;-84
2022/11/23 09:48:10;;;;;;;14.23;3.33;;;;;;;8.17;59.12;98503.75;10312529;28;20062;-83
2022/11/23 09:53:19;;;;;;;13.98;3.45;;;;;;;8.44;58.89;98495.69;10321532;28;20046;-83
2022/11/23 09:58:23;;;;;;;13.75;2.72;;;;;;;8.36;58.76;98487.59;10305413;28;20062;-84
2022/11/23 10:03:29;;;;;;;14.02;2.42;;;;;;;8.41;58.53;98468.09;10304633;28;20052;-83
2022/11/23 10:08:30;;;;;;;15.00;3.05;;;;;;;8.43;58.52;98473.16;10305859;28;20544;-83
2022/11/23 10:14:11;;;;;;;16.40;2.75;;;;;;;8.49;57.73;98470.94;10304482;28;20050;-83
2022/11/23 10:19:25;;;;;;;12.18;2.70;;;;;;;8.58;58.22;98456.41;10303529;28;20146;-83
2022/11/23 10:24:36;;;;;;;15.60;3.00;;;;;;;8.59;57.24;98451.06;10304624;28;20057;-84
2022/11/23 10:29:39;;;;;;;11.88;2.75;;;;;;;8.68;57.69;98457.38;10305409;28;20081;-84
2022/11/23 10:34:55;;;;;;;13.25;3.05;;;;;;;8.61;56.71;98458.78;10308780;28;20054;-84
2022/11/23 10:39:57;;;;;;;13.45;2.72;;;;;;;8.66;57.38;98472.28;10312566;28;20059;-84
2022/11/23 10:45:00;;;;;;;11.73;2.58;;;;;;;9.03;56.94;98479.00;10327131;28;20054;-84
2022/11/23 10:50:02;;;;;;;13.93;3.20;;;;;;;9.43;55.86;98466.31;10312824;28;20057;-83
2022/11/23 10:55:05;;;;;;;10.68;2.83;;;;;;;9.73;55.33;98466.53;10312600;28;20543;-84
2022/11/23 11:00:14;;;;;;;12.43;2.83;;;;;;;9.78;54.04;98461.78;10310656;28;20590;-83
2022/11/23 11:05:33;;;;;;;10.73;2.67;;;;;;;9.96;53.16;98442.03;10311753;28;20341;-84
2022/11/23 11:11:00;;;;;;;13.57;3.50;;;;;;;10.13;53.43;98428.44;10310922;28;20468;-83
2022/11/23 11:16:15;;;;;;;10.73;2.90;;;;;;;9.77;52.44;98435.81;10309727;28;20054;-84
2022/11/23 11:21:20;;;;;;;9.75;2.63;;;;;;;9.55;53.64;98434.88;10317069;28;20050;-83
2022/11/23 11:26:23;;;;;;;9.80;2.55;;;;;;;9.55;53.53;98419.22;10317084;28;20050;-83
2022/11/23 11:31:46;;;;;;;9.80;2.42;;;;;;;9.43;54.14;98409.75;10318427;28;20046;-85
2022/11/23 11:37:00;;;;;;;7.00;2.08;;;;;;;9.33;53.54;98400.97;10304568;28;20058;-85
2022/11/23 11:42:19;;;;;;;8.52;2.30;;;;;;;9.32;53.43;98395.91;10302992;28;20046;-85
2022/11/23 11:47:51;;;;;;;10.82;2.20;;;;;;;9.16;54.00;98393.63;10311047;28;20073;-84
2022/11/23 11:53:02;;;;;;;10.38;2.15;;;;;;;9.22;54.21;98385.34;10305432;28;20493;-84
2022/11/23 11:58:10;;;;;;;8.43;2.10;;;;;;;9.31;53.33;98379.41;10297441;28;20069;-85
2022/11/23 12:03:25;;;;;;;6.35;1.77;;;;;;;9.25;53.30;98374.66;10297037;28;20053;-84
2022/11/23 12:08:54;;;;;;;10.98;2.15;;;;;;;9.35;52.95;98370.38;10320346;28;20050;-86
2022/11/23 12:14:03;;;;;;;11.82;2.17;;;;;;;9.47;52.85;98366.78;10306061;28;20136;-85
2022/11/23 12:19:33;;;;;;;8.38;2.20;;;;;;;9.50;53.12;98363.94;10309598;28;20061;-87
2022/11/23 12:24:46;;;;;;;8.90;2.22;;;;;;;9.41;52.75;98359.47;10295946;28;20050;-86
2022/11/23 12:30:02;;;;;;;7.65;1.85;;;;;;;9.58;52.47;98358.91;10308391;28;20081;-86
2022/11/23 12:35:40;;;;;;;9.18;2.20;;;;;;;9.62;51.75;98351.69;10307613;28;20065;-87
2022/11/23 12:41:00;;;;;;;9.18;2.13;;;;;;;9.85;51.63;98345.44;10300065;28;20480;-85
2022/11/23 12:46:29;;;;;;;12.52;2.03;;;;;;;9.94;51.67;98342.09;10303123;28;20085;-85
2022/11/23 12:51:53;;;;;;;7.85;2.33;;;;;;;9.95;50.59;98348.16;10314131;28;20147;-85
2022/11/23 12:57:06;;;;;;;8.77;2.13;;;;;;;10.07;51.51;98349.75;10316706;28;20061;-84
2022/11/23 13:02:38;;;;;;;11.07;2.45;;;;;;;10.28;51.32;98345.34;10311072;28;20056;-84
2022/11/23 13:08:00;;;;;;;;;;;;;;;9.80;51.98;98347.63;10304897;28;20086;-84
2022/11/23 13:13:31;;;;;;;12.50;2.50;;;;;;;9.58;51.70;98330.22;10309373;28;19926;-84
2022/11/23 13:19:01;;;;;;;10.57;2.17;;;;;;;9.42;51.58;98337.63;10322348;28;20058;-85
2022/11/23 13:24:32;;;;;;;9.27;2.10;;;;;;;9.51;51.89;98339.50;10310874;28;20792;-84
2022/11/23 13:29:51;;;;;;;9.85;2.08;;;;;;;9.59;52.38;98311.00;10322427;28;20055;-85
2022/11/23 13:34:54;;;;;;;9.18;2.47;;;;;;;9.49;52.94;98299.66;10313040;28;20069;-84
2022/11/23 13:40:22;;;;;;;7.65;2.10;;;;;;;9.40;51.72;98294.38;10312666;28;20054;-84
2022/11/23 13:45:35;;;;;;;8.77;2.40;;;;;;;9.53;52.98;98282.78;10324167;28;20046;-84
2022/11/23 13:50:46;;;;;;;9.63;2.35;;;;;;;9.53;52.06;98280.19;10315241;28;20042;-84
2022/11/23 13:55:51;;;;;;;12.25;2.42;;;;;;;9.51;52.36;98274.25;10296248;28;20061;-85
2022/11/23 14:00:57;;;;;;;9.13;2.42;;;;;;;9.46;52.02;98265.97;10311342;28;20050;-86
2022/11/23 14:06:44;;;;;;;9.55;2.30;;;;;;;9.46;52.17;98265.16;10311294;28;20054;-85
2022/11/23 14:12:11;;;;;;;7.80;2.00;;;;;;;9.21;53.25;98268.09;10307950;28;20050;-87
2022/11/23 14:17:48;;;;;;;7.72;2.53;;;;;;;9.04;53.58;98269.44;10309583;28;20564;-85
2022/11/23 14:23:02;;;;;;;7.13;2.00;;;;;;;8.91;53.55;98250.50;10303350;28;20062;-84
2022/11/23 14:28:31;;;;;;;10.40;2.05;;;;;;;8.69;53.61;98258.34;10307337;28;20050;-84
2022/11/23 14:33:50;;;;;;;7.95;2.00;;;;;;;8.51;53.95;98263.22;10302201;28;20158;-84
2022/11/23 14:39:41;;;;;;;11.30;2.45;;;;;;;8.43;54.27;98269.97;10306200;28;20065;-84
2022/11/23 14:45:03;;;;;;;10.25;2.70;;;;;;;8.27;54.94;98279.91;10294009;28;20539;-84
2022/11/23 14:50:21;;;;;;;8.75;2.30;;;;;;;8.07;54.46;98273.59;10307901;28;20508;-83
2022/11/23 14:55:26;;;;;;;8.73;2.30;;;;;;;8.01;55.21;98274.06;10297625;28;20062;-84
2022/11/23 15:00:29;;;;;;;8.68;2.28;;;;;;;7.89;55.28;98281.03;10311616;28;20049;-84
2022/11/23 15:05:35;;;;;;;6.18;2.05;;;;;;;7.82;55.57;98281.56;10304244;28;20051;-84
2022/11/23 15:11:11;;;;;;;6.47;2.50;;;;;;;7.74;55.60;98287.34;10308756;28;20393;-84
2022/11/23 15:16:23;;;;;;;11.65;2.42;;;;;;;7.75;55.76;98278.59;10321768;28;20058;-85
2022/11/23 15:21:31;;;;;;;6.20;1.90;;;;;;;7.82;55.84;98279.81;10314279;28;20108;-84
2022/11/23 15:26:43;;;;;;;8.07;2.53;;;;;;;7.82;55.85;98277.22;10310352;28;20133;-85
2022/11/23 15:31:49;;;;;;;13.32;2.55;;;;;;;7.69;56.19;98273.84;10318695;28;20097;-85
2022/11/23 15:37:18;;;;;;;11.25;2.90;;;;;;;7.63;56.27;98274.31;10315223;28;20061;-84
2022/11/23 15:42:25;;;;;;;10.38;2.38;;;;;;;7.74;56.13;98283.91;10318845;28;20053;-85
2022/11/23 15:47:29;;;;;;;9.43;2.35;;;;;;;7.85;55.98;98289.97;10314434;28;20618;-85
2022/11/23 15:52:41;;;;;;;13.25;2.40;;;;;;;7.96;55.85;98292.63;10314110;28;20050;-84
2022/11/23 15:57:52;;;;;;;9.68;2.40;;;;;;;8.14;55.37;98298.25;10314956;28;20046;-85
2022/11/23 16:03:14;;;;;;;;;;;;;;;8.00;55.58;98314.88;10310034;28;20515;-85
2022/11/23 16:08:28;;;;;;;7.70;2.38;;;;;;;8.25;55.56;98313.88;10312820;28;19936;-83
2022/11/23 16:13:38;;;;;;;8.32;2.03;;;;;;;8.21;55.14;98316.84;10314554;28;20053;-85
2022/11/23 16:18:51;;;;;;;7.65;1.90;;;;;;;8.22;55.13;98318.50;10316842;28;20054;-84
2022/11/23 16:23:59;;;;;;;7.10;2.10;;;;;;;8.23;54.48;98322.75;10312848;28;20054;-85
2022/11/23 16:29:33;;;;;;;9.55;2.42;;;;;;;8.25;54.60;98324.31;10316303;28;20059;-86
2022/11/23 16:34:51;;;;;;;8.20;2.10;;;;;;;8.32;54.65;98325.53;10311038;28;20057;-85
2022/11/23 16:39:56;;;;;;;8.23;2.17;;;;;;;8.26;53.67;98349.38;10311328;28;20050;-86
2022/11/23 16:44:59;;;;;;;9.90;2.72;;;;;;;8.45;54.58;98361.84;10313731;28;20054;-86
2022/11/23 16:50:03;;;;;;;7.82;2.30;;;;;;;8.46;54.71;98359.16;10316053;28;20875;-84
2022/11/23 16:55:06;;;;;;;6.90;2.10;;;;;;;8.42;55.54;98372.53;10313237;28;20050;-84
2022/11/23 17:00:21;;;;;;;6.20;2.40;;;;;;;8.38;56.49;98389.34;10310132;28;20054;-85
2022/11/23 17:05:23;;;;;;;9.45;2.30;;;;;;;8.32;57.10;98398.44;10311073;28;20042;-84
2022/11/23 17:10:38;;;;;;;13.38;2.95;;;;;;;8.22;59.08;98409.66;10316047;28;20359;-84
2022/11/23 17:15:41;;;;;;;6.82;2.20;;;;;;;8.12;59.33;98427.72;10301595;28;20137;-84
2022/11/23 17:20:45;;;;;;;11.98;3.60;;;;;;;8.00;60.70;98437.22;10306304;28;20489;-84
2022/11/23 17:25:48;;;;;;;11.80;2.75;;;;;;;7.72;61.07;98447.97;10309868;28;20046;-83
2022/11/23 17:30:50;;;;;;;11.98;2.60;;;;;;;7.61;61.89;98454.91;10309753;28;20567;-84
2022/11/23 17:35:59;;;;;;;12.15;4.15;;;;;;;7.59;62.53;98460.19;10324804;28;20133;-84
2022/11/23 17:41:01;;;;;;;12.57;3.50;;;;;;;7.55;62.83;98471.75;10311119;28;20053;-82
2022/11/23 17:46:05;;;;;;;11.25;2.97;;;;;;;7.52;63.24;98471.97;10309921;28;20069;-85
2022/11/23 17:51:24;;;;;;;6.22;2.90;;;;;;;7.46;64.17;98477.63;10327692;28;20058;-85
2022/11/23 17:56:28;;;;;;;8.30;2.38;;;;;;;7.51;63.36;98488.50;10323209;28;20054;-86
2022/11/23 18:01:34;;;;;;;7.28;2.20;;;;;;;7.57;63.63;98489.88;10305397;28;20050;-87
2022/11/23 18:06:48;;;;;;;9.55;2.35;;;;;;;7.52;64.39;98500.59;10312604;28;20054;-87
2022/11/23 18:11:52;;;;;;;9.85;2.67;;;;;;;7.49;64.12;98510.38;10305309;28;20550;-83
2022/11/23 18:16:57;;;;;;;10.35;2.65;;;;;;;7.56;64.58;98512.44;10304086;28;20053;-84
2022/11/23 18:22:00;;;;;;;9.45;3.15;;;;;;;7.67;64.49;98517.72;10311112;28;20050;-83
2022/11/23 18:27:02;;;;;;;10.93;4.15;;;;;;;7.69;64.37;98528.03;10302597;28;20140;-84
2022/11/23 18:32:07;;;;;;;12.85;6.90;;;;;;;7.64;64.41;98540.53;10305613;28;20046;-84
2022/11/23 18:37:10;;;;;;;17.30;8.23;;;;;;;7.56;64.85;98545.44;10307329;28;20065;-84
2022/11/23 18:42:18;;;;;;;13.07;6.05;;;;;;;7.49;65.40;98550.22;10311724;28;20054;-83
2022/11/23 18:47:26;;;;;;;10.98;3.17;;;;;;;7.25;65.64;98553.66;10305620;28;20113;-83
2022/11/23 18:52:29;;;;;;;11.02;3.08;;;;;;;7.32;65.58;98555.75;10307911;28;20073;-83
2022/11/23 18:57:53;;;;;;;10.27;2.47;;;;;;;7.27;65.63;98563.03;10310730;28;20055;-83
2022/11/23 19:03:01;;;;;;;5.78;1.98;;;;;;;7.50;65.39;98564.06;10313881;28;20061;-83
2022/11/23 19:08:07;;;;;;;8.75;3.35;;;;;;;7.55;65.46;98585.41;10315854;28;20153;-84
2022/11/23 19:13:09;;;;;;;11.80;4.57;;;;;;;7.44;65.63;98585.28;10306996;28;20046;-83
2022/11/23 19:18:14;;;;;;;7.90;3.50;;;;;;;7.36;66.31;98601.44;10302762;28;20058;-83
2022/11/23 19:23:16;;;;;;;7.40;2.33;;;;;;;7.35;65.54;98597.16;10315085;28;20080;-83
2022/11/23 19:28:18;;;;;;;5.68;2.50;;;;;;;7.24;65.31;98607.47;10316007;28;20062;-84
2022/11/23 19:33:20;;;;;;;8.57;2.70;;;;;;;7.30;65.99;98614.00;10310224;28;20054;-84
2022/11/23 19:38:21;;;;;;;10.40;4.10;;;;;;;7.26;66.27;98621.19;10313288;28;20050;-82
2022/11/23 19:43:23;;;;;;;13.93;7.15;;;;;;;7.33;66.20;98640.63;10328757;28;20526;-83
2022/11/23 19:48:25;;;;;;;10.90;4.22;;;;;;;7.40;66.05;98641.06;10313102;28;20069;-83
2022/11/23 19:53:33;;;;;;;6.50;3.25;;;;;;;7.42;66.04;98660.00;10312722;28;20618;-82
2022/11/23 19:58:34;;;;;;;14.32;4.55;;;;;;;7.48;65.90;98657.81;10312074;28;20062;-83
2022/11/23 20:03:38;;;;;;;8.13;3.25;;;;;;;7.48;65.55;98664.78;10312386;28;20046;-82
2022/11/23 20:08:40;;;;;;;7.65;3.47;;;;;;;7.20;65.53;98671.00;10314555;28;20419;-83
2022/11/23 20:13:42;;;;;;;6.18;3.15;;;;;;;6.81;66.03;98673.59;10314830;28;20049;-82
2022/11/23 20:18:45;;;;;;;8.48;3.20;;;;;;;6.43;66.28;98680.38;10315015;28;20062;-83
2022/11/23 20:23:52;;;;;;;9.68;3.20;;;;;;;6.09;66.83;98697.16;10313564;28;20042;-82
2022/11/23 20:28:55;;;;;;;7.50;3.88;;;;;;;5.87;66.75;98713.22;10307003;28;20519;-82
2022/11/23 20:33:58;;;;;;;8.40;3.92;;;;;;;5.77;67.43;98712.09;10307416;28;20050;-82
2022/11/23 20:39:02;;;;;;;8.05;4.70;;;;;;;5.78;67.65;98716.34;10311151;28;20061;-83
2022/11/23 20:44:12;;;;;;;7.78;3.80;;;;;;;5.67;68.03;98723.94;10308229;28;20077;-82
2022/11/23 20:49:15;;;;;;;6.33;3.50;;;;;;;5.60;67.77;98738.19;10314246;28;20081;-83
2022/11/23 20:54:17;;;;;;;10.68;4.10;;;;;;;5.59;67.85;98751.25;10330935;28;20054;-83
2022/11/23 20:59:19;;;;;;;9.25;4.30;;;;;;;5.59;68.06;98762.47;10312253;28;20058;-82
2022/11/23 21:04:21;;;;;;;12.57;6.72;;;;;;;5.59;68.20;98764.22;10322534;28;20139;-82
2022/11/23 21:09:23;;;;;;;10.77;5.85;;;;;;;5.65;68.45;98777.66;10308253;28;20054;-82
2022/11/23 21:14:29;;;;;;;16.92;7.95;;;;;;;5.65;68.31;98782.84;10314810;28;20054;-82
2022/11/23 21:19:38;;;;;;;13.73;5.82;;;;;;;5.48;68.51;98780.38;10328546;28;20116;-82
2022/11/23 21:24:40;;;;;;;10.70;4.50;;;;;;;5.33;68.60;98794.22;10312015;28;20049;-82
2022/11/23 21:29:43;;;;;;;10.50;4.80;;;;;;;5.32;68.30;98798.56;10309834;28;20046;-82
2022/11/23 21:34:45;;;;;;;14.70;6.90;;;;;;;5.24;68.62;98811.13;10316358;28;20097;-82
2022/11/23 21:39:47;;;;;;;9.25;5.30;;;;;;;5.22;68.66;98815.56;10313903;28;20062;-82
2022/11/23 21:44:53;;;;;;;11.80;8.23;;;;;;;5.21;68.59;98818.22;10329672;28;20051;-82
2022/11/23 21:49:55;;;;;;;14.25;8.55;;;;;;;5.16;68.71;98825.44;10314565;28;20084;-82
2022/11/23 21:54:56;;;;;;;15.98;8.85;;;;;;;4.97;68.54;98824.75;10304402;28;20054;-82
2022/11/23 21:59:58;;;;;;;10.57;5.35;;;;;;;4.86;68.97;98827.09;10313054;28;20060;-81
2022/11/23 22:05:00;;;;;;;10.32;5.15;;;;;;;4.58;69.51;98838.94;10312687;28;20046;-82
2022/11/23 22:10:01;;;;;;;31.02;14.77;;;;;;;4.51;69.33;98847.94;10311233;28;20081;-82
2022/11/23 22:15:03;;;;;;;15.88;8.70;;;;;;;4.55;69.73;98857.22;10312066;28;20420;-82
2022/11/23 22:20:06;;;;;;;17.55;8.45;;;;;;;4.67;69.62;98856.59;10310917;28;20540;-82
2022/11/23 22:25:08;;;;;;;15.90;7.22;;;;;;;4.80;69.83;98872.28;10311447;28;20508;-82
2022/11/23 22:30:10;;;;;;;15.43;5.50;;;;;;;4.75;69.52;98874.31;10319130;28;20065;-81
2022/11/23 22:35:12;;;;;;;17.42;5.72;;;;;;;4.84;69.80;98880.75;10321600;28;20051;-81
2022/11/23 22:40:14;;;;;;;14.63;4.80;;;;;;;4.92;70.06;98878.59;10321520;28;20069;-82
2022/11/23 22:45:15;;;;;;;14.35;5.32;;;;;;;4.97;69.99;98887.78;10316170;28;20058;-82
2022/11/23 22:50:17;;;;;;;18.67;6.93;;;;;;;4.99;69.81;98901.50;10320907;28;20051;-81
2022/11/23 22:55:19;;;;;;;18.38;5.28;;;;;;;4.97;70.01;98908.50;10319532;28;20065;-81
2022/11/23 23:00:21;;;;;;;19.63;5.03;;;;;;;5.08;70.47;98910.53;10320821;28;20054;-81
2022/11/23 23:05:22;;;;;;;18.40;4.18;;;;;;;5.37;70.64;98915.00;10316737;28;20046;-80
2022/11/23 23:10:24;;;;;;;18.75;3.83;;;;;;;5.60;70.34;98913.69;10315701;28;20054;-80
2022/11/23 23:15:28;;;;;;;18.23;3.78;;;;;;;5.80;70.21;98911.66;10311719;28;20057;-80
2022/11/23 23:20:29;;;;;;;16.33;3.63;;;;;;;5.86;70.35;98907.91;10316094;28;20054;-80
2022/11/23 23:25:31;;;;;;;21.90;3.85;;;;;;;5.90;70.75;98910.22;10316462;28;20400;-80
2022/11/23 23:30:33;;;;;;;11.73;3.40;;;;;;;5.93;70.89;98915.25;10319410;28;20109;-80
2022/11/23 23:35:35;;;;;;;18.35;3.72;;;;;;;5.97;70.79;98927.13;10317641;28;20058;-82
2022/11/23 23:40:36;;;;;;;17.35;3.65;;;;;;;6.04;70.85;98931.03;10319005;28;20081;-81
2022/11/23 23:45:38;;;;;;;14.57;3.40;;;;;;;6.10;70.84;98932.44;10334126;28;20051;-81
2022/11/23 23:50:40;;;;;;;17.52;3.67;;;;;;;6.13;71.42;98937.44;10317429;28;20066;-81
2022/11/23 23:55:41;;;;;;;18.50;3.70;;;;;;;6.21;71.35;98938.69;10317759;28;20712;-82
